Time;durP1;ratioP1;P1;durP2;ratioP2;P2;SDS_P1;SDS_P2;PMS_P1;PMS_P2;Temp;Humidity;BMP_temperature;BMP_pressure;BME280_temperature;BME280_humidity;BME280_pressure;Samples;Min_cycle;Max_cycle;Signal;HPM_P1;HPM_P2
2023/10/02 00:01:51;;;;;;;13.93;7.53;;;16.30;99.90;;;;;;5070337;28;20262;-49
2023/10/02 00:04:20;;;;;;;19.52;10.02;;;16.30;99.90;;;;;;5070344;28;20579;-49
2023/10/02 00:06:46;;;;;;;17.27;9.55;;;16.30;99.90;;;;;;5070123;28;20484;-48
2023/10/02 00:09:15;;;;;;;15.52;8.35;;;16.30;99.90;;;;;;5070166;28;20158;-48
2023/10/02 00:11:45;;;;;;;16.55;9.27;;;16.20;99.90;;;;;;5069658;28;20247;-48
2023/10/02 00:14:18;;;;;;;18.10;10.25;;;16.20;99.90;;;;;;5052832;28;20184;-51
2023/10/02 00:17:04;;;;;;;17.40;9.20;;;16.20;99.90;;;;;;5070076;28;20170;-48
2023/10/02 00:19:39;;;;;;;14.68;8.32;;;16.20;99.90;;;;;;5069015;28;20205;-49
2023/10/02 00:22:09;;;;;;;13.00;7.90;;;16.20;99.90;;;;;;5069892;28;20170;-51
2023/10/02 00:24:37;;;;;;;21.48;11.38;;;16.20;99.90;;;;;;5070032;28;20162;-53
2023/10/02 00:27:04;;;;;;;19.80;8.52;;;16.20;99.90;;;;;;5070215;28;20209;-53
2023/10/02 00:29:31;;;;;;;17.02;8.02;;;;;;;;;;5070002;28;20174;-49
2023/10/02 00:31:57;;;;;;;15.95;8.05;;;16.10;99.90;;;;;;5070031;28;20205;-48
2023/10/02 00:34:32;;;;;;;14.15;7.65;;;16.00;99.90;;;;;;5070594;28;20170;-49
2023/10/02 00:37:06;;;;;;;15.48;8.20;;;16.00;99.90;;;;;;5070051;28;20259;-50
2023/10/02 00:39:34;;;;;;;16.48;8.20;;;15.90;99.90;;;;;;5069533;28;20158;-49
2023/10/02 00:42:15;;;;;;;12.93;6.85;;;;;;;;;;5070077;28;20176;-48
2023/10/02 00:44:51;;;;;;;13.73;7.25;;;15.90;99.90;;;;;;5069729;28;20173;-49
2023/10/02 00:47:38;;;;;;;12.90;7.78;;;15.90;99.90;;;;;;5069558;28;20221;-48
2023/10/02 00:50:10;;;;;;;18.15;8.52;;;15.90;99.90;;;;;;5070014;28;20254;-50
2023/10/02 00:52:42;;;;;;;16.85;8.35;;;15.90;99.90;;;;;;5051613;28;20209;-48
2023/10/02 00:55:11;;;;;;;15.93;9.35;;;15.80;99.90;;;;;;5069703;28;20166;-50
2023/10/02 00:57:38;;;;;;;13.50;6.80;;;15.80;99.90;;;;;;5069637;28;20264;-53
2023/10/02 01:00:16;;;;;;;17.05;8.20;;;15.80;99.90;;;;;;5069571;28;20540;-52
2023/10/02 01:02:42;;;;;;;14.88;8.23;;;;;;;;;;5053399;28;20239;-52
2023/10/02 01:05:14;;;;;;;15.68;8.15;;;15.80;99.90;;;;;;5069717;28;20174;-53
2023/10/02 01:07:41;;;;;;;16.08;7.80;;;15.80;99.90;;;;;;5069686;28;20521;-53
2023/10/02 01:10:08;;;;;;;12.77;7.40;;;15.80;99.90;;;;;;5069695;28;20177;-52
2023/10/02 01:12:43;;;;;;;13.75;7.75;;;15.70;99.90;;;;;;5069663;28;20244;-53
2023/10/02 01:15:13;;;;;;;14.98;8.10;;;15.70;99.90;;;;;;5069594;28;20618;-54
2023/10/02 01:17:40;;;;;;;13.60;7.20;;;15.70;99.90;;;;;;5069568;28;20170;-51
2023/10/02 01:20:20;;;;;;;15.10;8.13;;;15.70;99.90;;;;;;5071770;28;20181;-52
2023/10/02 01:22:51;;;;;;;14.80;8.23;;;15.60;99.90;;;;;;5073475;28;20633;-53
2023/10/02 01:25:23;;;;;;;14.45;8.07;;;15.60;99.90;;;;;;5073464;28;20174;-53
2023/10/02 01:27:51;;;;;;;16.33;8.65;;;15.60;99.90;;;;;;5073272;28;20173;-52
2023/10/02 01:30:21;;;;;;;16.77;9.02;;;15.50;99.90;;;;;;5073443;28;20196;-53
2023/10/02 01:35:37;;;;;;;17.08;10.15;;;15.50;99.90;;;;;;5073080;28;20235;-49
2023/10/02 01:38:14;;;;;;;17.20;8.27;;;15.50;99.90;;;;;;5073084;28;20597;-48
2023/10/02 01:40:53;;;;;;;16.65;8.43;;;15.50;99.90;;;;;;5073401;28;20181;-48
2023/10/02 01:43:26;;;;;;;17.70;8.68;;;15.50;99.90;;;;;;5073308;28;20223;-50
2023/10/02 01:45:56;;;;;;;14.15;8.50;;;;;;;;;;5073239;28;20264;-49
2023/10/02 01:48:44;;;;;;;14.77;8.15;;;15.30;99.90;;;;;;5055463;28;20178;-48
2023/10/02 01:51:25;;;;;;;17.38;8.65;;;15.40;99.90;;;;;;5054800;28;20577;-49
2023/10/02 01:54:15;;;;;;;15.27;8.50;;;15.40;99.90;;;;;;5073391;28;20315;-48
2023/10/02 01:56:45;;;;;;;13.85;7.97;;;15.30;99.90;;;;;;5072950;28;20174;-48
2023/10/02 01:59:14;;;;;;;10.05;6.30;;;15.30;99.90;;;;;;5072672;28;20165;-45
2023/10/02 02:01:51;;;;;;;14.02;7.85;;;15.20;99.90;;;;;;5072621;28;20168;-48
2023/10/02 02:04:18;;;;;;;14.15;7.70;;;15.30;99.90;;;;;;5072482;28;20555;-48
2023/10/02 02:06:55;;;;;;;14.95;7.82;;;15.30;99.90;;;;;;5072707;28;20154;-48
2023/10/02 02:09:23;;;;;;;14.90;8.07;;;15.30;99.90;;;;;;5054892;28;20173;-48
2023/10/02 02:12:05;;;;;;;13.00;7.57;;;15.30;99.90;;;;;;5072420;28;20625;-48
2023/10/02 02:14:49;;;;;;;15.23;8.18;;;15.30;99.90;;;;;;5072439;28;20545;-48
2023/10/02 02:17:18;;;;;;;19.48;8.60;;;15.30;99.90;;;;;;5072321;28;20900;-49
2023/10/02 02:19:48;;;;;;;17.00;8.88;;;15.30;99.90;;;;;;5072368;28;20198;-48
2023/10/02 02:22:25;;;;;;;13.15;8.07;;;15.30;99.90;;;;;;5072229;28;20166;-48
2023/10/02 02:24:53;;;;;;;14.90;8.00;;;15.30;99.90;;;;;;5072663;28;20640;-48
2023/10/02 02:27:19;;;;;;;15.80;9.10;;;15.30;99.90;;;;;;5072196;28;20728;-50
2023/10/02 02:29:49;;;;;;;13.15;8.02;;;15.30;99.90;;;;;;5071634;28;20204;-48
2023/10/02 02:32:19;;;;;;;15.00;8.02;;;15.20;99.90;;;;;;5072031;28;20221;-49
2023/10/02 02:34:46;;;;;;;16.98;9.18;;;15.20;99.90;;;;;;5072094;28;20505;-48
2023/10/02 02:37:13;;;;;;;16.17;8.25;;;15.20;99.90;;;;;;5071883;28;20185;-51
2023/10/02 02:39:39;;;;;;;14.73;8.15;;;15.20;99.90;;;;;;5071969;28;20166;-52
2023/10/02 02:44:47;;;;;;;13.13;7.60;;;15.20;99.90;;;;;;5072085;28;20169;-51
2023/10/02 02:47:14;;;;;;;15.32;8.40;;;15.20;99.90;;;;;;5071781;28;20218;-53
2023/10/02 02:49:48;;;;;;;16.42;9.25;;;15.10;99.90;;;;;;5071696;28;20170;-51
2023/10/02 02:52:19;;;;;;;16.05;9.02;;;15.20;99.90;;;;;;5071551;28;20565;-53
2023/10/02 02:54:48;;;;;;;15.77;8.13;;;15.20;99.90;;;;;;5071830;28;21140;-52
2023/10/02 02:57:25;;;;;;;15.30;7.90;;;15.20;99.90;;;;;;5071573;28;20641;-49
2023/10/02 03:02:40;;;;;;;15.38;8.25;;;15.10;99.90;;;;;;5071739;28;20170;-49
2023/10/02 03:05:11;;;;;;;13.13;8.02;;;15.10;99.90;;;;;;5070590;28;20173;-50
2023/10/02 03:07:39;;;;;;;18.05;8.95;;;15.10;99.90;;;;;;5071296;28;20170;-48
2023/10/02 03:10:10;;;;;;;14.23;8.50;;;15.00;99.90;;;;;;5071478;28;20177;-49
2023/10/02 03:12:44;;;;;;;15.20;9.18;;;15.00;99.90;;;;;;5071502;28;20212;-53
2023/10/02 03:15:45;;;;;;;16.08;8.43;;;15.00;99.90;;;;;;5071082;28;20169;-52
2023/10/02 03:18:22;;;;;;;21.05;9.93;;;15.00;99.90;;;;;;5070982;28;20212;-48
2023/10/02 03:20:49;;;;;;;16.42;9.35;;;15.00;99.90;;;;;;5071262;28;20177;-48
2023/10/02 03:23:18;;;;;;;16.85;9.00;;;15.00;99.90;;;;;;5071059;28;20163;-48
2023/10/02 03:25:47;;;;;;;17.52;10.07;;;15.00;99.90;;;;;;5071042;28;20265;-50
2023/10/02 03:28:19;;;;;;;15.95;8.98;;;14.90;99.90;;;;;;5071307;28;20178;-52
2023/10/02 03:30:52;;;;;;;16.63;9.52;;;15.00;99.90;;;;;;5071632;28;20178;-53
2023/10/02 03:33:20;;;;;;;19.85;10.18;;;;;;;;;;5070829;28;20173;-50
2023/10/02 03:36:07;;;;;;;19.95;9.73;;;14.90;99.90;;;;;;5070756;28;20162;-51
2023/10/02 03:38:33;;;;;;;18.20;10.43;;;;;;;;;;5070915;28;20169;-52
2023/10/02 03:41:01;;;;;;;15.00;8.93;;;14.90;99.90;;;;;;5070708;28;20172;-52
2023/10/02 03:43:34;;;;;;;18.33;10.70;;;14.90;99.90;;;;;;5070068;28;20170;-50
2023/10/02 03:46:04;;;;;;;19.75;11.30;;;14.80;99.90;;;;;;5070460;28;20708;-53
2023/10/02 03:48:32;;;;;;;22.98;11.93;;;14.80;99.90;;;;;;5070490;28;20639;-52
2023/10/02 03:50:58;;;;;;;18.00;10.45;;;14.80;99.90;;;;;;5070668;28;20547;-53
2023/10/02 03:53:30;;;;;;;19.20;10.45;;;;;;;;;;5070967;28;20166;-53
2023/10/02 03:58:50;;;;;;;23.73;12.18;;;14.80;99.90;;;;;;5070679;28;20664;-53
2023/10/02 04:01:25;;;;;;;21.55;11.45;;;14.80;99.90;;;;;;5069615;28;20249;-53
2023/10/02 04:06:36;;;;;;;21.65;11.23;;;14.80;99.90;;;;;;5069201;28;20185;-52
2023/10/02 04:09:23;;;;;;;27.20;12.50;;;14.80;99.90;;;;;;5070460;28;20165;-51
2023/10/02 04:12:02;;;;;;;24.27;13.32;;;14.80;99.90;;;;;;5070437;28;20305;-53
2023/10/02 04:14:38;;;;;;;29.90;14.48;;;14.90;99.90;;;;;;5070110;28;20681;-53
2023/10/02 04:17:09;;;;;;;25.05;14.15;;;14.90;99.90;;;;;;5070398;28;20230;-49
2023/10/02 04:19:49;;;;;;;24.13;14.07;;;14.90;99.90;;;;;;5070204;28;20266;-52
2023/10/02 04:22:25;;;;;;;26.52;14.20;;;14.90;99.90;;;;;;5069986;28;20169;-52
2023/10/02 04:24:54;;;;;;;24.30;13.60;;;14.90;99.90;;;;;;5070380;28;20161;-52
2023/10/02 04:30:24;;;;;;;20.40;12.43;;;14.80;99.90;;;;;;5069769;28;20181;-52
2023/10/02 04:32:51;;;;;;;21.60;12.13;;;14.80;99.90;;;;;;5070015;28;20202;-53
2023/10/02 04:38:09;;;;;;;21.20;12.25;;;14.80;99.90;;;;;;5070005;28;20230;-52
2023/10/02 04:40:51;;;;;;;23.23;14.02;;;14.80;99.90;;;;;;5069894;28;20625;-51
2023/10/02 04:43:28;;;;;;;22.92;13.60;;;14.90;99.90;;;;;;5051964;28;20178;-53
2023/10/02 04:46:01;;;;;;;23.08;13.10;;;14.80;99.90;;;;;;5069863;28;20307;-49
2023/10/02 04:48:38;;;;;;;20.83;12.13;;;14.90;99.90;;;;;;5069745;28;20190;-50
2023/10/02 04:51:08;;;;;;;23.52;13.23;;;14.80;99.90;;;;;;5069621;28;20740;-52
2023/10/02 04:53:35;;;;;;;23.17;12.70;;;14.80;99.90;;;;;;5072345;28;20180;-53
2023/10/02 04:56:07;;;;;;;27.05;13.02;;;14.90;99.90;;;;;;5076278;28;20165;-50
2023/10/02 04:58:39;;;;;;;22.77;12.27;;;14.80;99.90;;;;;;5076267;28;20170;-53
2023/10/02 05:03:49;;;;;;;23.63;12.75;;;14.70;99.90;;;;;;5076584;28;20169;-53
2023/10/02 05:06:43;;;;;;;22.48;11.73;;;14.70;99.90;;;;;;5076468;28;20173;-51
2023/10/02 05:11:50;;;;;;;24.38;13.30;;;;;;;;;;5076000;28;20201;-51
2023/10/02 05:14:15;;;;;;;27.23;13.25;;;14.70;99.90;;;;;;5075846;28;20169;-53
2023/10/02 05:16:42;;;;;;;26.88;14.43;;;14.80;99.90;;;;;;5075972;28;20180;-53
2023/10/02 05:19:09;;;;;;;26.13;14.65;;;14.70;99.90;;;;;;5076231;28;20177;-53
2023/10/02 05:21:38;;;;;;;28.15;15.98;;;14.80;99.90;;;;;;5076165;28;20193;-53
2023/10/02 05:24:11;;;;;;;26.88;16.42;;;14.70;99.90;;;;;;5075859;28;20533;-52
2023/10/02 05:26:41;;;;;;;29.73;16.10;;;;;;;;;;5076056;28;20239;-50
2023/10/02 05:29:09;;;;;;;30.05;16.20;;;14.80;99.90;;;;;;5075893;28;20170;-49
2023/10/02 05:31:35;;;;;;;34.25;15.90;;;14.90;99.90;;;;;;5057600;28;20208;-50
2023/10/02 05:34:21;;;;;;;32.53;17.23;;;14.80;99.90;;;;;;5075622;28;20158;-50
2023/10/02 05:37:11;;;;;;;32.30;16.92;;;14.80;99.90;;;;;;5075686;28;20211;-51
2023/10/02 05:39:40;;;;;;;31.75;15.43;;;14.80;99.90;;;;;;5075484;28;20511;-49
2023/10/02 05:42:14;;;;;;;27.15;15.82;;;14.80;99.90;;;;;;5075983;28;20248;-48
2023/10/02 05:44:42;;;;;;;27.05;15.75;;;14.90;99.90;;;;;;5075720;28;20196;-48
2023/10/02 05:47:08;;;;;;;27.00;14.82;;;14.90;99.90;;;;;;5075616;28;20221;-48
2023/10/02 05:49:36;;;;;;;31.45;15.10;;;14.90;99.90;;;;;;5075867;28;20174;-48
2023/10/02 05:52:02;;;;;;;29.55;16.20;;;;;;;;;;5075654;28;20262;-50
2023/10/02 05:54:35;;;;;;;31.40;15.50;;;14.90;99.90;;;;;;5075645;28;20567;-50
2023/10/02 05:57:12;;;;;;;25.23;15.30;;;15.00;99.90;;;;;;5075683;28;20310;-51
2023/10/02 05:59:54;;;;;;;26.20;15.52;;;14.90;99.90;;;;;;5075594;28;20208;-50
2023/10/02 06:02:22;;;;;;;26.50;14.52;;;15.00;99.90;;;;;;5075784;28;20215;-49
2023/10/02 06:04:53;;;;;;;29.30;15.18;;;14.90;99.90;;;;;;5074075;28;20216;-49
2023/10/02 06:10:09;;;;;;;25.60;14.25;;;14.90;99.90;;;;;;5072279;28;20184;-52
2023/10/02 06:12:45;;;;;;;20.15;12.52;;;14.90;99.90;;;;;;5072661;28;20212;-50
2023/10/02 06:17:58;;;;;;;25.98;14.02;;;14.90;99.90;;;;;;5072413;28;20595;-46
2023/10/02 06:20:24;;;;;;;25.67;14.27;;;14.80;99.90;;;;;;5072587;28;20170;-50
2023/10/02 06:23:03;;;;;;;22.77;13.95;;;14.90;99.90;;;;;;5072514;28;20166;-49
2023/10/02 06:25:29;;;;;;;21.95;12.55;;;;;;;;;;5072346;28;20177;-49
2023/10/02 06:28:14;;;;;;;28.33;15.00;;;;;;;;;;5072076;28;20165;-49
2023/10/02 06:30:40;;;;;;;22.95;13.43;;;15.00;99.90;;;;;;5072179;28;20249;-49
2023/10/02 06:33:08;;;;;;;25.33;13.98;;;;;;;;;;5071790;28;20297;-48
2023/10/02 06:35:36;;;;;;;22.67;13.40;;;;;;;;;;5072106;28;20537;-49
2023/10/02 06:38:15;;;;;;;23.17;13.52;;;;;;;;;;5071970;28;20181;-49
2023/10/02 06:40:55;;;;;;;25.95;13.38;;;15.30;99.90;;;;;;5072014;28;20581;-48
2023/10/02 06:43:28;;;;;;;24.85;12.52;;;15.40;99.90;;;;;;5072374;28;20193;-48
2023/10/02 06:46:06;;;;;;;23.33;12.88;;;15.50;99.90;;;;;;5054055;28;20218;-48
2023/10/02 06:48:43;;;;;;;23.10;11.98;;;15.50;99.90;;;;;;5053190;28;20204;-49
2023/10/02 06:51:10;;;;;;;19.80;12.13;;;15.60;99.90;;;;;;5071714;28;20197;-48
2023/10/02 06:53:40;;;;;;;21.77;12.35;;;15.60;99.90;;;;;;5071382;28;20177;-49
2023/10/02 06:56:11;;;;;;;24.10;13.10;;;15.70;99.90;;;;;;5071794;28;20174;-50
2023/10/02 06:58:52;;;;;;;22.73;11.85;;;15.70;99.90;;;;;;5071174;28;20185;-48
2023/10/02 07:01:27;;;;;;;24.52;12.25;;;15.80;99.90;;;;;;5071426;28;20596;-49
2023/10/02 07:03:54;;;;;;;23.42;12.43;;;15.90;99.90;;;;;;5071732;28;20157;-49
2023/10/02 07:06:23;;;;;;;22.35;13.02;;;16.00;99.90;;;;;;5071741;28;20315;-49
2023/10/02 07:09:10;;;;;;;25.35;13.02;;;;;;;;;;5071540;28;20533;-49
2023/10/02 07:11:36;;;;;;;24.40;12.90;;;;;;;;;;5071143;28;20565;-48
2023/10/02 07:14:04;;;;;;;23.10;13.02;;;16.30;99.90;;;;;;5071122;28;20174;-48
2023/10/02 07:16:32;;;;;;;22.52;12.38;;;16.50;99.90;;;;;;5070122;28;20170;-50
2023/10/02 07:18:58;;;;;;;26.48;13.18;;;;;;;;;;5070717;28;20580;-48
2023/10/02 07:21:25;;;;;;;29.02;13.38;;;16.60;99.90;;;;;;5071563;28;20178;-48
2023/10/02 07:23:50;;;;;;;20.63;12.73;;;16.60;99.90;;;;;;5071617;28;20166;-48
2023/10/02 07:26:19;;;;;;;24.08;12.63;;;16.70;99.90;;;;;;5071298;28;20642;-48
2023/10/02 07:28:52;;;;;;;28.73;13.07;;;16.80;99.90;;;;;;5070753;28;20681;-48
2023/10/02 07:31:21;;;;;;;20.20;12.40;;;16.90;99.90;;;;;;5070965;28;20210;-48
2023/10/02 07:33:47;;;;;;;22.83;13.07;;;17.00;99.90;;;;;;5070667;28;20166;-48
2023/10/02 07:36:14;;;;;;;23.67;13.55;;;17.10;99.90;;;;;;5052944;28;20554;-49
2023/10/02 07:38:46;;;;;;;26.50;13.48;;;17.30;99.90;;;;;;5070795;28;20583;-46
2023/10/02 07:41:25;;;;;;;25.73;13.35;;;17.50;99.90;;;;;;5070417;28;20170;-49
2023/10/02 07:43:55;;;;;;;23.52;12.82;;;17.50;99.90;;;;;;5071326;28;20204;-49
2023/10/02 07:46:24;;;;;;;27.85;13.60;;;17.60;99.90;;;;;;5070905;28;20279;-48
2023/10/02 07:48:57;;;;;;;25.23;13.90;;;;;;;;;;5053064;28;20185;-49
2023/10/02 07:51:30;;;;;;;26.80;13.40;;;17.70;99.90;;;;;;5070990;28;20202;-48
2023/10/02 07:53:59;;;;;;;25.02;13.45;;;17.80;99.90;;;;;;5070566;28;20184;-48
2023/10/02 07:56:27;;;;;;;22.30;12.05;;;18.00;99.90;;;;;;5070806;28;20185;-49
2023/10/02 07:58:55;;;;;;;23.80;12.82;;;18.00;99.90;;;;;;5070548;28;20736;-48
2023/10/02 08:01:25;;;;;;;22.92;13.45;;;18.20;99.90;;;;;;5070926;28;20249;-48
2023/10/02 08:03:50;;;;;;;21.33;12.63;;;18.30;99.90;;;;;;5070941;28;20162;-48
2023/10/02 08:06:21;;;;;;;22.27;12.45;;;18.40;99.90;;;;;;5070297;28;20259;-48
2023/10/02 08:09:24;;;;;;;24.75;13.35;;;18.50;99.90;;;;;;5070029;28;20166;-49
2023/10/02 08:11:33;;;;;;;21.00;12.25;;;18.60;99.90;;;;;;5069816;28;20665;-48
2023/10/02 08:14:00;;;;;;;22.17;12.38;;;18.70;99.90;;;;;;5070044;28;20174;-48
2023/10/02 08:16:27;;;;;;;22.90;12.60;;;18.80;99.90;;;;;;5069927;28;20215;-48
2023/10/02 08:19:01;;;;;;;21.98;12.63;;;18.90;99.90;;;;;;5070623;28;20205;-48
2023/10/02 08:21:36;;;;;;;24.88;12.80;;;18.90;99.90;;;;;;5070242;28;20217;-48
2023/10/02 08:24:11;;;;;;;25.98;12.45;;;18.90;99.90;;;;;;5069970;28;20165;-47
2023/10/02 08:26:40;;;;;;;21.10;12.43;;;;;;;;;;5070033;28;20247;-48
2023/10/02 08:29:10;;;;;;;18.98;11.38;;;19.10;99.90;;;;;;5069412;28;20598;-48
2023/10/02 08:31:43;;;;;;;25.25;11.82;;;19.20;99.90;;;;;;5069908;28;20286;-48
2023/10/02 08:34:19;;;;;;;21.23;12.35;;;19.30;99.90;;;;;;5070077;28;20178;-49
2023/10/02 08:36:45;;;;;;;23.23;12.07;;;;;;;;;;5069737;28;20621;-48
2023/10/02 08:39:11;;;;;;;21.65;12.85;;;19.40;99.90;;;;;;5051786;28;20170;-49
2023/10/02 08:41:43;;;;;;;24.40;12.20;;;19.50;99.90;;;;;;5069739;28;20680;-49
2023/10/02 08:44:13;;;;;;;21.48;11.88;;;19.70;99.90;;;;;;5069815;28;20281;-48
2023/10/02 08:46:45;;;;;;;23.58;12.32;;;;;;;;;;5069417;28;20221;-48
2023/10/02 08:49:12;;;;;;;23.02;12.77;;;20.00;99.90;;;;;;5069919;28;20217;-48
2023/10/02 08:51:38;;;;;;;19.23;11.95;;;20.00;99.90;;;;;;5069543;28;20194;-48
2023/10/02 08:54:05;;;;;;;24.08;12.70;;;20.20;99.90;;;;;;5069611;28;20181;-49
2023/10/02 08:56:43;;;;;;;20.75;12.38;;;20.30;99.90;;;;;;5051693;28;20154;-48
2023/10/02 08:59:27;;;;;;;23.35;12.07;;;20.40;99.90;;;;;;5069742;28;20515;-49
2023/10/02 09:02:16;;;;;;;25.80;12.18;;;20.60;99.90;;;;;;5069789;28;20622;-48
2023/10/02 09:04:53;;;;;;;22.70;12.00;;;20.70;99.90;;;;;;5069402;28;20631;-48
2023/10/02 09:07:44;;;;;;;23.00;12.65;;;20.70;99.90;;;;;;5069935;28;20653;-50
2023/10/02 09:10:12;;;;;;;30.48;13.32;;;20.90;99.90;;;;;;5069327;28;20188;-49
2023/10/02 09:12:51;;;;;;;22.73;12.13;;;;;;;;;;5069394;28;20228;-53
2023/10/02 09:15:30;;;;;;;25.13;13.63;;;21.00;99.90;;;;;;5051423;28;20174;-51
2023/10/02 09:17:57;;;;;;;22.60;12.77;;;;;;;;;;5069251;28;20253;-49
2023/10/02 09:20:47;;;;;;;21.42;12.23;;;21.10;99.90;;;;;;5069764;28;20529;-53
2023/10/02 09:23:09;;;;;;;19.05;12.45;;;21.30;99.90;;;;;;5068749;28;20170;-53
2023/10/02 09:25:37;;;;;;;23.55;12.93;;;21.40;99.90;;;;;;5069432;28;20166;-53
2023/10/02 09:28:13;;;;;;;21.90;12.48;;;21.50;99.90;;;;;;5069139;28;20634;-53
2023/10/02 09:30:41;;;;;;;20.42;12.32;;;21.60;99.90;;;;;;5069464;28;20174;-52
2023/10/02 09:33:14;;;;;;;21.02;12.10;;;21.70;99.90;;;;;;5069183;28;20229;-53
2023/10/02 09:35:43;;;;;;;24.50;11.65;;;21.80;99.90;;;;;;5069375;28;20185;-52
2023/10/02 09:38:10;;;;;;;24.20;12.82;;;22.00;99.90;;;;;;5069044;28;20203;-49
2023/10/02 09:40:58;;;;;;;26.77;11.55;;;22.10;99.90;;;;;;5070345;28;20162;-47
2023/10/02 09:43:24;;;;;;;23.90;12.73;;;22.10;99.90;;;;;;5073117;28;20182;-46
2023/10/02 09:45:58;;;;;;;27.00;12.20;;;22.30;99.90;;;;;;5073176;28;20214;-46
2023/10/02 09:52:10;;;;;;;23.52;11.98;;;22.60;99.90;;;;;;5051147;28;20259;-46
2023/10/02 09:55:03;;;;;;;25.85;13.05;;;22.80;99.90;;;;;;5072533;28;20675;-46
2023/10/02 09:57:34;;;;;;;26.83;13.35;;;22.90;99.90;;;;;;5073109;28;20158;-47
2023/10/02 10:03:30;;;;;;;23.92;11.85;;;23.20;99.90;;;;;;5072991;28;20227;-48
2023/10/02 10:06:08;;;;;;;22.33;11.80;;;23.40;99.90;;;;;;5072488;28;20162;-48
2023/10/02 10:12:21;;;;;;;24.38;12.73;;;23.50;99.90;;;;;;5072376;28;20273;-49
2023/10/02 10:14:42;;;;;;;21.27;12.68;;;23.40;99.90;;;;;;5072007;28;20405;-49
2023/10/02 10:17:49;;;;;;;22.10;11.90;;;23.50;99.90;;;;;;5072212;28;20177;-48
2023/10/02 10:20:25;;;;;;;23.80;12.95;;;23.70;99.90;;;;;;5069011;28;20181;-48
2023/10/02 10:22:51;;;;;;;24.30;12.80;;;23.70;99.90;;;;;;5072750;28;20173;-49
2023/10/02 10:25:22;;;;;;;27.42;13.18;;;23.70;99.90;;;;;;5072065;28;20222;-50
2023/10/02 10:28:08;;;;;;;19.27;11.35;;;23.70;99.90;;;;;;5072419;28;20172;-49
2023/10/02 10:35:55;;;;;;;24.42;12.20;;;23.90;99.90;;;;;;5072162;28;20261;-48
2023/10/02 10:38:36;;;;;;;21.23;12.40;;;24.10;99.90;;;;;;5072508;28;20197;-49
2023/10/02 10:41:06;;;;;;;23.20;12.07;;;24.20;99.90;;;;;;5072446;28;20255;-48
2023/10/02 10:43:43;;;;;;;21.98;12.23;;;24.30;99.90;;;;;;5071717;28;20173;-48
2023/10/02 10:46:19;;;;;;;19.88;12.00;;;24.40;99.90;;;;;;5071632;28;20312;-48
2023/10/02 10:48:48;;;;;;;20.77;12.32;;;24.40;99.90;;;;;;5071449;28;20165;-49
2023/10/02 10:51:27;;;;;;;19.48;11.65;;;24.50;99.90;;;;;;5071446;28;20201;-50
2023/10/02 10:54:00;;;;;;;24.20;12.70;;;;;;;;;;5071891;28;20177;-47
2023/10/02 10:56:27;;;;;;;22.08;12.43;;;24.70;99.90;;;;;;5053698;28;20162;-49
2023/10/02 10:59:10;;;;;;;22.55;13.25;;;24.80;99.90;;;;;;5071762;28;20567;-49
2023/10/02 11:01:37;;;;;;;23.77;12.85;;;;;;;;;;5071528;28;20197;-47
2023/10/02 11:04:03;;;;;;;21.83;11.93;;;25.00;99.90;;;;;;5071373;28;20257;-48
2023/10/02 11:06:29;;;;;;;21.52;12.98;;;25.00;99.90;;;;;;5071388;28;20249;-47
2023/10/02 11:09:12;;;;;;;22.13;12.55;;;25.00;99.90;;;;;;5071435;28;20184;-50
2023/10/02 11:11:50;;;;;;;20.88;11.90;;;25.00;99.90;;;;;;5071196;28;20680;-49
2023/10/02 11:14:34;;;;;;;21.52;12.50;;;25.10;99.90;;;;;;5071405;28;20169;-48
2023/10/02 11:17:04;;;;;;;22.75;13.32;;;25.20;99.90;;;;;;5053155;28;20173;-50
2023/10/02 11:22:14;;;;;;;22.15;12.50;;;25.40;99.90;;;;;;5071274;28;20531;-48
2023/10/02 11:25:18;;;;;;;21.75;12.48;;;25.50;99.90;;;;;;5070884;28;20157;-49
2023/10/02 11:27:57;;;;;;;21.63;11.38;;;25.50;99.90;;;;;;5070915;28;20165;-50
2023/10/02 11:30:32;;;;;;;23.83;11.68;;;25.80;99.90;;;;;;5071426;28;20169;-49
2023/10/02 11:33:04;;;;;;;21.80;12.88;;;25.80;99.90;;;;;;5052685;28;20208;-48
2023/10/02 11:35:37;;;;;;;17.95;10.40;;;;;;;;;;5071000;28;20170;-49
2023/10/02 11:38:04;;;;;;;17.98;10.40;;;25.80;99.90;;;;;;5070461;28;20165;-48
2023/10/02 11:40:30;;;;;;;16.73;10.93;;;;;;;;;;5070748;28;20157;-49
2023/10/02 11:42:59;;;;;;;22.63;11.93;;;25.90;99.90;;;;;;5070595;28;20173;-48
2023/10/02 11:45:29;;;;;;;21.05;12.30;;;25.90;99.90;;;;;;5070789;28;20213;-48
2023/10/02 11:47:55;;;;;;;19.67;12.02;;;25.90;99.90;;;;;;5070816;28;20640;-48
2023/10/02 11:50:21;;;;;;;19.40;11.57;;;25.80;99.90;;;;;;5071107;28;20194;-50
2023/10/02 11:52:47;;;;;;;20.85;12.05;;;25.90;99.90;;;;;;5070628;28;20599;-46
2023/10/02 11:55:17;;;;;;;21.20;13.00;;;;;;;;;;5070491;28;20173;-46
2023/10/02 11:57:51;;;;;;;21.05;11.85;;;25.80;99.90;;;;;;5070504;28;20207;-49
2023/10/02 12:00:21;;;;;;;22.10;12.45;;;25.70;99.90;;;;;;5070403;28;20162;-47
2023/10/02 12:02:49;;;;;;;20.73;11.70;;;25.90;99.90;;;;;;5070094;28;20223;-50
2023/10/02 12:05:16;;;;;;;20.95;11.57;;;26.00;99.90;;;;;;5070284;28;20702;-49
2023/10/02 12:07:43;;;;;;;20.23;12.57;;;26.10;99.90;;;;;;5069942;28;20621;-49
2023/10/02 12:10:14;;;;;;;22.27;12.10;;;26.20;99.90;;;;;;5069944;28;20168;-46
2023/10/02 12:12:39;;;;;;;25.75;12.15;;;26.20;99.90;;;;;;5069841;28;20239;-47
2023/10/02 12:15:06;;;;;;;23.67;12.48;;;26.30;99.90;;;;;;5070276;28;20165;-48
2023/10/02 12:17:32;;;;;;;22.17;12.45;;;26.30;99.90;;;;;;5070267;28;20173;-49
2023/10/02 12:19:58;;;;;;;21.85;12.13;;;26.30;99.90;;;;;;5070229;28;20506;-47
2023/10/02 12:22:26;;;;;;;21.15;12.23;;;26.20;99.90;;;;;;5069910;28;20624;-46
2023/10/02 12:24:51;;;;;;;20.05;12.20;;;26.30;99.90;;;;;;5070608;28;20173;-49
2023/10/02 12:27:18;;;;;;;24.55;12.73;;;26.30;99.90;;;;;;5070112;28;20176;-47
2023/10/02 12:29:44;;;;;;;18.60;11.35;;;;;;;;;;5070089;28;20647;-46
2023/10/02 12:32:10;;;;;;;17.80;11.07;;;26.50;99.90;;;;;;5069833;28;20212;-45
2023/10/02 12:34:36;;;;;;;20.48;11.82;;;;;;;;;;5069808;28;20153;-47
2023/10/02 12:37:03;;;;;;;19.77;11.95;;;26.40;99.90;;;;;;5070309;28;20169;-47
2023/10/02 12:39:30;;;;;;;19.83;12.57;;;;;;;;;;5070090;28;20219;-47
2023/10/02 12:41:56;;;;;;;20.73;12.68;;;;;;;;;;5070947;28;20169;-49
2023/10/02 12:44:22;;;;;;;18.63;11.55;;;26.40;99.90;;;;;;5070880;28;20518;-50
2023/10/02 12:46:51;;;;;;;17.60;11.35;;;26.40;99.90;;;;;;5069445;28;20213;-48
2023/10/02 12:49:21;;;;;;;20.52;12.50;;;26.50;99.90;;;;;;5069849;28;20224;-50
2023/10/02 12:51:49;;;;;;;19.95;11.57;;;26.50;99.90;;;;;;5069898;28;20237;-47
2023/10/02 12:54:14;;;;;;;22.00;12.40;;;26.60;99.90;;;;;;5069394;28;20636;-51
2023/10/02 12:56:40;;;;;;;18.38;11.95;;;26.60;99.90;;;;;;5070411;28;20173;-48
2023/10/02 12:59:11;;;;;;;19.23;11.55;;;26.60;99.90;;;;;;5070287;28;20533;-50
2023/10/02 13:01:38;;;;;;;23.42;12.18;;;;;;;;;;5071023;28;20161;-50
2023/10/02 13:04:04;;;;;;;23.63;12.30;;;26.80;99.90;;;;;;5070860;28;20181;-48
2023/10/02 13:06:30;;;;;;;26.83;13.30;;;27.00;99.90;;;;;;5070948;28;20162;-50
2023/10/02 13:09:04;;;;;;;20.70;12.27;;;26.90;99.90;;;;;;5070947;28;20193;-49
2023/10/02 13:11:30;;;;;;;20.55;11.32;;;27.00;99.90;;;;;;5071128;28;20186;-50
2023/10/02 13:13:56;;;;;;;22.05;12.00;;;;;;;;;;5053224;28;20180;-51
2023/10/02 13:16:24;;;;;;;25.85;12.27;;;26.80;99.90;;;;;;5075320;28;20165;-54
2023/10/02 13:18:55;;;;;;;17.20;11.70;;;26.70;99.90;;;;;;5075528;28;20173;-52
2023/10/02 13:21:21;;;;;;;21.25;11.63;;;26.50;99.90;;;;;;5075288;28;20669;-51
2023/10/02 13:23:48;;;;;;;20.00;11.55;;;26.40;99.90;;;;;;5057457;28;20194;-48
2023/10/02 13:26:16;;;;;;;21.10;12.20;;;26.50;99.90;;;;;;5074759;28;20176;-49
2023/10/02 13:28:48;;;;;;;21.80;12.13;;;26.60;99.90;;;;;;5074938;28;20219;-49
2023/10/02 13:31:16;;;;;;;23.05;12.38;;;26.70;99.90;;;;;;5075047;28;20166;-50
2023/10/02 13:33:52;;;;;;;26.42;12.43;;;26.60;99.90;;;;;;5075115;28;20185;-49
2023/10/02 13:36:25;;;;;;;18.52;10.88;;;26.60;99.90;;;;;;5075031;28;20191;-50
2023/10/02 13:38:54;;;;;;;21.65;12.52;;;26.70;99.90;;;;;;5075407;28;20252;-48
2023/10/02 13:41:21;;;;;;;21.50;12.43;;;26.60;99.90;;;;;;5075034;28;20245;-49
2023/10/02 13:43:48;;;;;;;21.45;12.85;;;26.60;99.90;;;;;;5074849;28;20176;-48
2023/10/02 13:46:16;;;;;;;21.17;12.43;;;26.60;99.90;;;;;;5074295;28;20227;-48
2023/10/02 13:48:43;;;;;;;22.17;12.48;;;26.60;99.90;;;;;;5074455;28;20262;-48
2023/10/02 13:51:09;;;;;;;21.05;13.23;;;26.60;99.90;;;;;;5074067;28;20560;-49
2023/10/02 13:53:36;;;;;;;20.20;11.82;;;26.60;99.90;;;;;;5074730;28;20181;-48